Time;durP1;ratioP1;P1;durP2;ratioP2;P2;SDS_P1;SDS_P2;PMS_P1;PMS_P2;Temp;Humidity;BMP_temperature;BMP_pressure;BME280_temperature;BME280_humidity;BME280_pressure;Samples;Min_cycle;Max_cycle;Signal;HPM_P1;HPM_P2
2022/07/25 00:00:31;;;;;;;4.55;2.85;;;25.60;63.70;;;;;;5069432;28;20028;-72
2022/07/25 00:02:56;;;;;;;5.78;3.30;;;25.60;63.80;;;;;;5071877;28;20103;-72
2022/07/25 00:05:22;;;;;;;6.68;3.65;;;25.50;63.80;;;;;;5072060;28;20150;-72
2022/07/25 00:07:48;;;;;;;5.80;2.95;;;25.50;63.70;;;;;;5072174;28;20090;-72
2022/07/25 00:10:14;;;;;;;4.68;2.88;;;25.50;64.00;;;;;;5069933;28;20028;-72
2022/07/25 00:12:41;;;;;;;5.07;3.60;;;25.40;63.10;;;;;;5070935;28;20024;-72
2022/07/25 00:15:07;;;;;;;5.32;3.17;;;25.40;63.10;;;;;;5071718;28;20036;-73
2022/07/25 00:17:33;;;;;;;5.93;3.75;;;25.30;63.80;;;;;;5070861;28;20021;-72
2022/07/25 00:19:59;;;;;;;5.00;2.75;;;25.20;63.50;;;;;;5071596;28;20043;-73
2022/07/25 00:22:25;;;;;;;5.85;4.22;;;25.20;62.10;;;;;;5071500;28;20016;-72
2022/07/25 00:24:51;;;;;;;6.18;3.53;;;25.20;63.10;;;;;;5070640;28;20079;-73
2022/07/25 00:27:16;;;;;;;6.03;3.42;;;25.20;63.20;;;;;;5071437;28;20047;-72
2022/07/25 00:29:42;;;;;;;5.78;4.18;;;25.20;63.10;;;;;;5071244;28;20021;-72
2022/07/25 00:32:07;;;;;;;6.72;3.53;;;25.30;64.00;;;;;;5071664;28;20027;-73
2022/07/25 00:34:33;;;;;;;5.10;3.50;;;25.20;63.90;;;;;;5071762;28;20555;-73
2022/07/25 00:36:59;;;;;;;6.70;4.25;;;25.20;64.10;;;;;;5069081;28;20037;-73
2022/07/25 00:39:25;;;;;;;5.43;3.70;;;25.20;64.50;;;;;;5066165;28;20021;-73
2022/07/25 00:41:50;;;;;;;7.47;3.33;;;25.20;64.60;;;;;;5070379;28;20497;-72
2022/07/25 00:44:27;;;;;;;4.75;3.05;;;25.20;64.60;;;;;;5070480;28;20095;-72
2022/07/25 00:46:54;;;;;;;5.18;3.17;;;25.10;64.50;;;;;;5071787;28;20050;-74
2022/07/25 00:49:20;;;;;;;6.13;3.53;;;25.10;64.50;;;;;;5071361;28;20025;-73
2022/07/25 00:51:46;;;;;;;6.35;3.85;;;25.10;64.70;;;;;;5071094;28;20029;-74
2022/07/25 00:54:12;;;;;;;7.57;4.20;;;25.10;65.10;;;;;;5071172;28;20035;-73
2022/07/25 00:56:38;;;;;;;6.80;4.43;;;25.10;65.40;;;;;;5064645;28;20079;-74
2022/07/25 00:59:05;;;;;;;5.35;3.38;;;25.00;65.10;;;;;;5056322;28;20491;-73
2022/07/25 01:01:35;;;;;;;6.47;3.38;;;25.00;65.10;;;;;;5070805;28;20017;-73
2022/07/25 01:04:00;;;;;;;8.55;4.95;;;25.00;65.30;;;;;;5070605;28;20032;-72
2022/07/25 01:06:27;;;;;;;5.53;3.65;;;25.00;65.30;;;;;;5071983;28;20013;-72
2022/07/25 01:08:54;;;;;;;6.10;4.00;;;24.90;65.30;;;;;;5066456;28;20033;-73
2022/07/25 01:11:21;;;;;;;5.93;4.05;;;24.90;65.60;;;;;;5070321;28;20024;-72
2022/07/25 01:13:46;;;;;;;7.40;3.97;;;24.90;65.80;;;;;;5070826;28;20073;-73
2022/07/25 01:16:12;;;;;;;7.68;3.67;;;24.90;65.80;;;;;;5067835;28;20042;-73
2022/07/25 01:18:37;;;;;;;5.95;4.05;;;24.80;65.70;;;;;;5070658;28;20024;-73
2022/07/25 01:21:04;;;;;;;6.10;4.30;;;24.80;65.80;;;;;;5068900;28;20159;-73
2022/07/25 01:23:29;;;;;;;6.15;4.13;;;24.80;65.90;;;;;;5055746;28;20052;-73
2022/07/25 01:25:55;;;;;;;5.90;4.30;;;24.70;66.00;;;;;;5062466;28;20552;-73
2022/07/25 01:28:20;;;;;;;5.80;3.60;;;24.70;65.70;;;;;;5068442;28;20111;-73
2022/07/25 01:30:46;;;;;;;9.48;4.30;;;24.70;65.70;;;;;;5070369;28;20016;-73
2022/07/25 01:33:19;;;;;;;7.13;3.58;;;24.70;65.80;;;;;;5068105;28;21135;-73
2022/07/25 01:35:46;;;;;;;5.10;3.05;;;24.70;65.80;;;;;;5058721;28;20375;-73
2022/07/25 01:38:12;;;;;;;6.78;4.38;;;24.70;65.50;;;;;;5068953;28;20024;-73
2022/07/25 01:40:38;;;;;;;5.55;3.50;;;24.60;65.80;;;;;;5069772;28;20040;-73
2022/07/25 01:43:04;;;;;;;9.10;5.13;;;24.60;65.30;;;;;;5070164;28;20020;-73
2022/07/25 01:45:30;;;;;;;6.60;4.90;;;24.60;65.80;;;;;;5069884;28;20479;-73
2022/07/25 01:47:55;;;;;;;8.23;5.55;;;24.60;65.40;;;;;;5068868;28;20033;-73
2022/07/25 01:50:21;;;;;;;9.52;5.35;;;24.50;65.90;;;;;;5050805;28;20145;-73
2022/07/25 01:52:47;;;;;;;7.63;5.15;;;24.50;65.80;;;;;;5067395;28;20031;-74
2022/07/25 01:55:12;;;;;;;8.95;5.85;;;24.50;65.90;;;;;;5050215;28;20395;-73
2022/07/25 01:57:39;;;;;;;8.73;4.03;;;24.50;66.30;;;;;;5068015;28;20071;-73
2022/07/25 02:00:07;;;;;;;9.10;5.93;;;24.50;65.70;;;;;;5069409;28;20127;-73
2022/07/25 02:02:32;;;;;;;6.90;4.78;;;24.50;66.40;;;;;;5069787;28;20025;-73
2022/07/25 02:04:58;;;;;;;10.25;5.40;;;24.50;65.30;;;;;;5069728;28;20078;-74
2022/07/25 02:07:24;;;;;;;10.05;5.85;;;24.50;66.00;;;;;;5070003;28;20032;-74
2022/07/25 02:09:49;;;;;;;7.65;5.15;;;24.40;65.90;;;;;;5055543;28;20029;-73
2022/07/25 02:12:15;;;;;;;10.48;5.30;;;24.40;65.70;;;;;;5060151;28;20040;-74
2022/07/25 02:14:40;;;;;;;7.38;4.97;;;24.40;65.90;;;;;;5069298;28;20027;-74
2022/07/25 02:17:06;;;;;;;8.52;5.88;;;24.40;66.30;;;;;;5069586;28;20020;-74
2022/07/25 02:19:33;;;;;;;8.35;4.97;;;24.40;66.60;;;;;;5069991;28;20095;-73
2022/07/25 02:21:59;;;;;;;9.80;6.68;;;24.40;66.70;;;;;;5065481;28;20020;-73
2022/07/25 02:24:26;;;;;;;8.00;5.40;;;24.40;66.80;;;;;;5067446;28;20064;-74
2022/07/25 02:26:51;;;;;;;8.20;5.63;;;24.40;66.80;;;;;;5070039;28;20025;-73
2022/07/25 02:29:17;;;;;;;10.48;6.18;;;24.40;66.80;;;;;;5069831;28;20042;-74
2022/07/25 02:31:43;;;;;;;6.60;4.25;;;24.40;67.00;;;;;;5054904;28;20078;-74
2022/07/25 02:34:08;;;;;;;10.18;6.18;;;24.40;66.80;;;;;;5069434;28;20040;-74
2022/07/25 02:36:34;;;;;;;7.63;5.65;;;24.30;67.00;;;;;;5064268;28;20135;-73
2022/07/25 02:38:59;;;;;;;7.75;5.70;;;24.30;67.10;;;;;;5067021;28;20475;-73
2022/07/25 02:41:26;;;;;;;6.72;5.35;;;24.30;67.20;;;;;;5065875;28;20052;-73
2022/07/25 02:43:52;;;;;;;9.20;6.13;;;24.20;67.30;;;;;;5069276;28;20449;-73
2022/07/25 02:46:17;;;;;;;10.20;5.90;;;24.30;67.60;;;;;;5073658;28;20103;-73
2022/07/25 02:48:43;;;;;;;7.80;5.88;;;24.20;67.60;;;;;;5072250;28;20021;-73
2022/07/25 02:51:09;;;;;;;9.07;6.28;;;24.20;67.70;;;;;;5057919;28;20025;-73
2022/07/25 02:53:34;;;;;;;8.10;6.47;;;24.20;67.90;;;;;;5063226;28;20827;-74
2022/07/25 02:56:00;;;;;;;10.73;6.93;;;24.20;67.80;;;;;;5072297;28;20058;-73
2022/07/25 02:58:26;;;;;;;7.32;6.07;;;24.10;68.10;;;;;;5064418;28;20039;-73
2022/07/25 03:00:51;;;;;;;12.10;7.18;;;24.10;68.20;;;;;;5072118;28;20550;-73
2022/07/25 03:03:17;;;;;;;6.82;5.57;;;24.10;68.10;;;;;;5090816;28;20009;-73
2022/07/25 03:05:42;;;;;;;7.00;5.38;;;24.10;67.90;;;;;;5096438;28;20017;-74
2022/07/25 03:08:08;;;;;;;11.48;7.05;;;24.00;67.40;;;;;;5086030;28;20025;-74
2022/07/25 03:10:35;;;;;;;7.40;5.15;;;24.00;67.90;;;;;;5073301;28;20020;-74
2022/07/25 03:13:01;;;;;;;6.72;5.10;;;24.00;68.00;;;;;;5073779;28;20111;-73
2022/07/25 03:15:27;;;;;;;7.93;5.75;;;24.00;67.80;;;;;;5069672;28;20046;-74
2022/07/25 03:17:53;;;;;;;12.88;6.95;;;24.00;67.80;;;;;;5071638;28;20120;-73
2022/07/25 03:20:18;;;;;;;8.32;6.32;;;24.00;68.20;;;;;;5072650;28;20031;-74
2022/07/25 03:22:44;;;;;;;8.50;5.80;;;24.00;68.30;;;;;;5066490;28;20064;-74
2022/07/25 03:25:10;;;;;;;11.32;7.22;;;24.00;68.40;;;;;;5067918;28;20021;-74
2022/07/25 03:27:36;;;;;;;9.00;7.03;;;24.00;68.60;;;;;;5072976;28;20025;-74
2022/07/25 03:30:02;;;;;;;10.20;6.78;;;23.90;68.60;;;;;;5072848;28;20075;-74
2022/07/25 03:32:28;;;;;;;10.45;7.93;;;24.00;68.70;;;;;;5072305;28;20024;-74
2022/07/25 03:34:53;;;;;;;10.30;6.03;;;23.90;68.60;;;;;;5072262;28;20510;-74
2022/07/25 03:37:19;;;;;;;10.43;7.70;;;23.90;68.70;;;;;;5071232;28;20028;-73
2022/07/25 03:39:45;;;;;;;8.07;6.25;;;23.90;68.90;;;;;;5072330;28;20027;-73
2022/07/25 03:42:11;;;;;;;7.53;5.40;;;23.90;69.00;;;;;;5065943;28;20054;-73
2022/07/25 03:44:36;;;;;;;9.50;5.80;;;23.80;68.90;;;;;;5071175;28;20035;-74
2022/07/25 03:47:02;;;;;;;10.38;7.10;;;23.80;69.00;;;;;;5071228;28;20471;-74
2022/07/25 03:49:28;;;;;;;9.85;6.28;;;23.80;69.30;;;;;;5071491;28;20036;-73
2022/07/25 03:51:54;;;;;;;12.05;7.18;;;23.80;69.40;;;;;;5072438;28;20033;-74
2022/07/25 03:54:19;;;;;;;10.43;7.22;;;23.80;69.50;;;;;;5072467;28;20070;-73
2022/07/25 03:56:47;;;;;;;10.57;7.03;;;23.70;69.70;;;;;;5071884;28;20028;-74
2022/07/25 03:59:15;;;;;;;9.27;6.68;;;23.70;69.80;;;;;;5072466;28;20021;-74
2022/07/25 04:01:43;;;;;;;10.23;7.28;;;23.70;70.00;;;;;;5071122;28;20493;-74
2022/07/25 04:04:09;;;;;;;11.70;7.15;;;23.70;70.00;;;;;;5071534;28;20033;-74
2022/07/25 04:06:35;;;;;;;8.30;6.70;;;23.70;69.90;;;;;;5065285;28;20473;-73
2022/07/25 04:09:02;;;;;;;9.75;7.35;;;23.70;70.10;;;;;;5070813;28;20028;-73
2022/07/25 04:11:29;;;;;;;10.88;7.05;;;23.70;70.20;;;;;;5071058;28;20023;-74
2022/07/25 04:13:56;;;;;;;9.63;6.72;;;23.70;70.30;;;;;;5070350;28;20036;-73
2022/07/25 04:16:22;;;;;;;12.68;7.75;;;23.70;70.20;;;;;;5071683;28;20132;-74
2022/07/25 04:18:47;;;;;;;10.80;7.72;;;23.70;70.40;;;;;;5070297;28;20103;-74
2022/07/25 04:21:13;;;;;;;12.73;7.20;;;23.70;70.40;;;;;;5070382;28;20020;-74
2022/07/25 04:23:39;;;;;;;8.98;7.65;;;23.70;70.60;;;;;;5070662;28;20487;-74
2022/07/25 04:26:05;;;;;;;11.25;7.88;;;23.70;70.40;;;;;;5071641;28;20467;-75
2022/07/25 04:28:31;;;;;;;11.07;8.32;;;23.70;70.40;;;;;;5071037;28;20020;-74
2022/07/25 04:30:57;;;;;;;8.65;6.43;;;23.70;70.30;;;;;;5065699;28;20394;-74
2022/07/25 04:33:22;;;;;;;9.02;6.88;;;23.70;69.70;;;;;;5070869;28;20017;-74
2022/07/25 04:35:48;;;;;;;10.98;7.18;;;23.70;69.90;;;;;;5071746;28;20506;-74
2022/07/25 04:38:14;;;;;;;9.13;6.47;;;23.70;70.20;;;;;;5071967;28;20040;-74
2022/07/25 04:40:40;;;;;;;10.32;7.43;;;23.70;70.10;;;;;;5070930;28;20087;-75
2022/07/25 04:43:05;;;;;;;9.80;6.25;;;23.70;70.90;;;;;;5070091;28;20021;-75
2022/07/25 04:45:31;;;;;;;10.00;6.93;;;23.70;69.70;;;;;;5071554;28;20398;-75
2022/07/25 04:47:57;;;;;;;10.35;7.18;;;23.70;68.70;;;;;;5070221;28;20169;-73
2022/07/25 04:50:23;;;;;;;10.27;7.65;;;23.70;68.90;;;;;;5071308;28;20131;-73
2022/07/25 04:52:49;;;;;;;9.07;6.18;;;23.70;69.10;;;;;;5069957;28;20013;-74
2022/07/25 04:55:14;;;;;;;10.63;8.43;;;23.70;69.00;;;;;;5070965;28;20052;-74
2022/07/25 04:57:40;;;;;;;9.77;5.85;;;23.80;68.50;;;;;;5070997;28;20021;-74
2022/07/25 05:00:09;;;;;;;12.00;8.15;;;23.90;67.40;;;;;;5064503;28;20059;-75
2022/07/25 05:02:36;;;;;;;12.40;7.15;;;23.90;68.20;;;;;;5069381;28;20039;-74
2022/07/25 05:05:03;;;;;;;8.75;6.70;;;23.90;68.10;;;;;;5070307;28;20071;-75
2022/07/25 05:07:28;;;;;;;9.20;6.32;;;24.00;68.00;;;;;;5071034;28;20020;-72
2022/07/25 05:09:54;;;;;;;8.82;6.35;;;24.00;67.40;;;;;;5071101;28;20034;-73
2022/07/25 05:12:20;;;;;;;10.20;7.38;;;24.00;67.00;;;;;;5070790;28;20033;-74
2022/07/25 05:14:46;;;;;;;10.13;8.38;;;24.10;67.30;;;;;;5070063;28;20455;-75
2022/07/25 05:17:11;;;;;;;12.13;9.48;;;24.20;66.30;;;;;;5071129;28;20024;-75
2022/07/25 05:19:37;;;;;;;14.18;8.20;;;24.20;66.00;;;;;;5069274;28;20021;-75
2022/07/25 05:22:03;;;;;;;10.00;7.43;;;24.20;65.80;;;;;;5071143;28;20642;-74
2022/07/25 05:24:33;;;;;;;11.00;7.75;;;24.30;65.70;;;;;;5071486;28;20055;-75
2022/07/25 05:26:58;;;;;;;15.55;7.63;;;24.30;65.50;;;;;;5061462;28;20532;-75
2022/07/25 05:29:24;;;;;;;12.85;9.02;;;24.30;65.20;;;;;;5070809;28;20029;-75
2022/07/25 05:31:49;;;;;;;11.00;8.73;;;24.30;65.10;;;;;;5070594;28;20028;-74
2022/07/25 05:34:15;;;;;;;11.73;8.77;;;24.30;64.90;;;;;;5070623;28;20028;-74
2022/07/25 05:36:42;;;;;;;13.00;10.07;;;24.30;65.10;;;;;;5066195;28;20031;-74
2022/07/25 05:39:07;;;;;;;11.73;7.60;;;24.40;65.20;;;;;;5071453;28;20096;-75
2022/07/25 05:41:33;;;;;;;14.00;11.48;;;24.40;65.00;;;;;;5070930;28;20462;-75
2022/07/25 05:43:59;;;;;;;11.95;9.25;;;24.50;64.90;;;;;;5064892;28;20025;-73
2022/07/25 05:46:24;;;;;;;11.65;8.38;;;24.50;65.10;;;;;;5069822;28;20024;-73
2022/07/25 05:48:50;;;;;;;16.92;11.82;;;24.50;64.60;;;;;;5064807;28;20025;-74
2022/07/25 05:51:15;;;;;;;13.55;9.95;;;24.50;64.50;;;;;;5060497;28;20040;-74
2022/07/25 05:53:41;;;;;;;13.98;9.52;;;24.60;64.60;;;;;;5060308;28;20035;-74
2022/07/25 05:56:08;;;;;;;12.25;9.15;;;24.60;64.20;;;;;;5062492;28;20036;-73
2022/07/25 05:58:36;;;;;;;12.77;10.93;;;24.70;63.90;;;;;;5059528;28;20069;-74
2022/07/25 06:01:02;;;;;;;9.27;7.28;;;24.70;63.80;;;;;;5063906;28;20016;-76
2022/07/25 06:03:27;;;;;;;11.55;7.90;;;24.80;63.60;;;;;;5056217;28;20375;-73
2022/07/25 06:05:55;;;;;;;12.25;9.93;;;24.80;63.50;;;;;;5062666;28;20020;-76
2022/07/25 06:08:21;;;;;;;12.52;9.50;;;24.90;63.50;;;;;;5053485;28;20021;-74
2022/07/25 06:10:47;;;;;;;13.45;10.27;;;24.90;63.40;;;;;;5063916;28;20028;-74
2022/07/25 06:13:13;;;;;;;11.88;9.02;;;25.00;63.70;;;;;;5059614;28;20025;-75
2022/07/25 06:15:38;;;;;;;12.68;9.68;;;25.10;63.10;;;;;;5058282;28;20036;-74
2022/07/25 06:18:04;;;;;;;11.80;9.20;;;25.10;63.70;;;;;;5061915;28;20025;-73
2022/07/25 06:20:29;;;;;;;13.80;10.15;;;25.10;63.80;;;;;;5056058;28;20024;-75
2022/07/25 06:22:55;;;;;;;11.77;10.30;;;25.20;63.40;;;;;;5059876;28;20491;-72
2022/07/25 06:25:21;;;;;;;13.82;10.02;;;25.20;63.00;;;;;;5060625;28;20050;-75
2022/07/25 06:27:46;;;;;;;13.60;10.55;;;25.30;63.10;;;;;;5057357;28;20043;-75
2022/07/25 06:30:12;;;;;;;17.95;11.98;;;25.30;63.00;;;;;;5059895;28;20032;-74
2022/07/25 06:32:38;;;;;;;12.73;9.75;;;25.40;62.90;;;;;;5060335;28;20017;-75
2022/07/25 06:35:04;;;;;;;15.30;10.57;;;25.40;62.80;;;;;;5057328;28;20021;-74
2022/07/25 06:37:30;;;;;;;15.88;12.65;;;25.40;62.80;;;;;;5063050;28;20032;-76
2022/07/25 06:39:55;;;;;;;15.13;10.40;;;25.50;63.10;;;;;;5060637;28;20410;-75
2022/07/25 06:42:21;;;;;;;12.00;9.38;;;25.50;63.10;;;;;;5058983;28;20029;-73
2022/07/25 06:44:46;;;;;;;12.63;7.95;;;25.50;62.90;;;;;;5050772;28;20083;-71
2022/07/25 06:47:12;;;;;;;10.30;6.97;;;25.40;62.00;;;;;;5061011;28;20044;-73
2022/07/25 06:49:39;;;;;;;10.63;6.55;;;25.40;62.20;;;;;;5067306;28;20024;-73
2022/07/25 06:52:05;;;;;;;8.40;6.70;;;25.30;62.50;;;;;;5065717;28;20035;-73
2022/07/25 06:54:31;;;;;;;7.63;5.82;;;25.40;62.80;;;;;;5064173;28;20031;-73
2022/07/25 06:56:56;;;;;;;8.98;7.43;;;25.40;62.80;;;;;;5057045;28;20430;-73
2022/07/25 06:59:22;;;;;;;8.27;6.55;;;25.40;62.70;;;;;;5055107;28;20467;-72
2022/07/25 07:01:48;;;;;;;8.50;5.85;;;25.40;62.80;;;;;;5059487;28;20116;-73
2022/07/25 07:04:14;;;;;;;10.63;6.60;;;25.30;62.90;;;;;;5054813;28;20261;-74
2022/07/25 07:06:39;;;;;;;10.27;6.70;;;25.30;62.80;;;;;;5056061;28;20027;-73
2022/07/25 07:09:05;;;;;;;7.10;5.80;;;25.30;62.90;;;;;;5060881;28;20387;-72
2022/07/25 07:11:33;;;;;;;7.10;5.68;;;25.30;63.00;;;;;;5056769;28;20565;-74
2022/07/25 07:14:01;;;;;;;9.13;6.13;;;25.40;62.90;;;;;;5058111;28;20028;-73
2022/07/25 07:16:28;;;;;;;8.73;6.28;;;25.50;62.80;;;;;;5055952;28;20051;-72
2022/07/25 07:18:54;;;;;;;8.05;5.97;;;25.60;62.30;;;;;;5063715;28;20055;-72
2022/07/25 07:21:19;;;;;;;12.02;5.60;;;25.70;62.30;;;;;;5059523;28;20048;-73
2022/07/25 07:23:45;;;;;;;10.10;5.47;;;25.80;62.20;;;;;;5056519;28;20025;-73
2022/07/25 07:26:11;;;;;;;7.75;6.07;;;25.90;62.20;;;;;;5059166;28;20479;-71
2022/07/25 07:28:36;;;;;;;8.20;5.28;;;26.00;62.00;;;;;;5061872;28;20397;-72
2022/07/25 07:31:02;;;;;;;6.45;4.63;;;26.00;61.80;;;;;;5062664;28;20033;-73
2022/07/25 07:33:27;;;;;;;6.93;3.92;;;26.10;61.40;;;;;;5069233;28;20021;-71
2022/07/25 07:35:55;;;;;;;5.60;3.95;;;26.20;60.80;;;;;;5072739;28;20508;-71
2022/07/25 07:38:24;;;;;;;5.55;3.63;;;26.20;60.50;;;;;;5071356;28;20028;-72
2022/07/25 07:40:50;;;;;;;7.13;4.13;;;26.20;60.10;;;;;;5072514;28;20051;-72
2022/07/25 07:43:15;;;;;;;6.43;3.53;;;26.10;59.90;;;;;;5072228;28;20095;-71
2022/07/25 07:45:42;;;;;;;7.00;3.53;;;26.00;59.90;;;;;;5060373;28;20024;-71
2022/07/25 07:48:07;;;;;;;7.15;3.53;;;26.00;59.90;;;;;;5063337;28;20027;-72
2022/07/25 07:50:33;;;;;;;6.53;3.92;;;26.00;59.90;;;;;;5070512;28;20394;-70
2022/07/25 07:52:59;;;;;;;5.55;3.20;;;26.00;59.90;;;;;;5058549;28;20103;-72
2022/07/25 07:55:44;;;;;;;5.50;3.10;;;26.10;59.60;;;;;;5072631;28;20115;-72
2022/07/25 07:58:15;;;;;;;4.93;3.20;;;26.20;59.40;;;;;;5071103;28;20447;-72
2022/07/25 08:00:42;;;;;;;5.28;2.70;;;26.30;59.20;;;;;;5061794;28;20013;-72
2022/07/25 08:03:08;;;;;;;6.18;2.88;;;26.30;59.10;;;;;;5072075;28;20020;-73
2022/07/25 08:05:35;;;;;;;5.43;2.53;;;26.40;59.10;;;;;;5071760;28;20024;-73
2022/07/25 08:08:02;;;;;;;5.13;2.70;;;26.40;59.00;;;;;;5058932;28;20040;-72
2022/07/25 08:10:31;;;;;;;4.90;2.92;;;26.50;58.80;;;;;;5058712;28;20037;-73
2022/07/25 08:12:58;;;;;;;4.03;2.42;;;26.60;57.60;;;;;;5067989;28;20021;-72
2022/07/25 08:15:25;;;;;;;5.32;2.40;;;26.60;57.20;;;;;;5061822;28;20040;-72
2022/07/25 08:17:52;;;;;;;3.83;2.22;;;26.50;56.20;;;;;;5074628;28;20043;-72
2022/07/25 08:20:21;;;;;;;4.35;2.15;;;26.40;56.40;;;;;;5065864;28;20463;-71
2022/07/25 08:22:48;;;;;;;3.25;1.85;;;26.20;56.50;;;;;;5062959;28;20036;-71
2022/07/25 08:25:16;;;;;;;4.10;2.15;;;26.10;56.60;;;;;;5056883;28;20060;-71
2022/07/25 08:27:42;;;;;;;4.78;1.77;;;26.00;56.70;;;;;;5062256;28;20012;-73
2022/07/25 08:30:08;;;;;;;3.70;2.08;;;25.90;56.30;;;;;;5071066;28;20048;-73
2022/07/25 08:32:44;;;;;;;4.15;2.17;;;25.90;57.30;;;;;;5071686;28;20020;-72
2022/07/25 08:35:10;;;;;;;3.03;1.60;;;26.00;57.10;;;;;;5071639;28;20060;-71
2022/07/25 08:37:35;;;;;;;4.45;2.38;;;26.20;57.20;;;;;;5066902;28;20059;-72
2022/07/25 08:40:01;;;;;;;4.45;2.28;;;26.30;57.30;;;;;;5060546;28;20020;-72
2022/07/25 08:42:26;;;;;;;4.32;1.90;;;26.30;56.00;;;;;;5065682;28;20364;-71
2022/07/25 08:44:58;;;;;;;3.45;1.70;;;26.30;56.60;;;;;;5064775;28;20028;-72
2022/07/25 08:47:24;;;;;;;2.78;1.25;;;26.30;56.60;;;;;;5070660;28;20031;-72
2022/07/25 08:49:50;;;;;;;4.07;1.70;;;26.20;57.20;;;;;;5070595;28;20013;-72
2022/07/25 08:52:18;;;;;;;5.53;1.83;;;26.20;57.60;;;;;;5064481;28;20395;-72
2022/07/25 08:54:46;;;;;;;3.65;1.30;;;26.20;58.20;;;;;;5051272;28;20549;-71
2022/07/25 08:57:12;;;;;;;4.22;1.70;;;26.40;57.90;;;;;;5059497;28;20176;-72
2022/07/25 08:59:38;;;;;;;3.75;1.50;;;26.60;57.60;;;;;;5055425;28;20029;-71
2022/07/25 09:02:06;;;;;;;3.83;1.80;;;26.80;57.20;;;;;;5054323;28;20025;-71
2022/07/25 09:04:35;;;;;;;4.00;1.63;;;26.80;56.80;;;;;;5053924;28;20028;-71
2022/07/25 09:07:03;;;;;;;3.58;1.90;;;26.70;57.60;;;;;;5056431;28;20036;-72
2022/07/25 09:09:33;;;;;;;3.40;1.58;;;26.80;57.80;;;;;;5056153;28;20570;-71
2022/07/25 09:11:59;;;;;;;;;;;26.90;57.80;;;;;;5053638;28;20021;-72
2022/07/25 09:14:25;;;;;;;4.00;1.33;;;26.90;57.80;;;;;;5059288;28;19919;-72
2022/07/25 09:16:50;;;;;;;3.10;1.40;;;27.10;58.70;;;;;;5056226;28;20044;-73
2022/07/25 09:19:21;;;;;;;2.25;1.17;;;27.30;58.00;;;;;;5057356;28;20320;-72
2022/07/25 09:22:02;;;;;;;3.45;1.33;;;27.40;57.50;;;;;;5054645;28;20024;-73
2022/07/25 09:24:29;;;;;;;3.40;1.20;;;27.30;57.90;;;;;;5057662;28;20033;-71
2022/07/25 09:26:57;;;;;;;3.13;1.13;;;27.20;58.20;;;;;;5057485;28;20025;-71
2022/07/25 09:29:25;;;;;;;3.20;1.20;;;27.00;58.60;;;;;;5056707;28;21081;-71
2022/07/25 09:31:53;;;;;;;3.47;0.88;;;26.80;59.10;;;;;;5055279;28;20099;-71
2022/07/25 09:34:30;;;;;;;1.63;1.05;;;26.60;59.30;;;;;;5051756;28;20090;-71
2022/07/25 09:36:57;;;;;;;3.13;1.10;;;26.50;60.90;;;;;;5055178;28;20028;-72
2022/07/25 09:39:33;;;;;;;4.93;1.30;;;26.40;60.90;;;;;;5056685;28;20035;-74
2022/07/25 09:41:58;;;;;;;4.25;1.20;;;26.50;61.20;;;;;;5057907;28;20083;-71
2022/07/25 09:44:29;;;;;;;2.83;1.30;;;26.60;60.80;;;;;;5057160;28;20032;-72
2022/07/25 09:47:00;;;;;;;2.35;0.93;;;26.70;60.40;;;;;;5058283;28;20043;-73
2022/07/25 09:49:38;;;;;;;4.22;0.98;;;26.90;60.40;;;;;;5053514;28;20548;-74
2022/07/25 09:52:05;;;;;;;4.07;1.35;;;27.20;60.20;;;;;;5058777;28;20071;-74
2022/07/25 09:54:32;;;;;;;4.90;1.20;;;27.50;59.30;;;;;;5064018;28;20527;-73
2022/07/25 09:56:57;;;;;;;3.03;1.05;;;27.60;58.70;;;;;;5063802;28;20032;-71
2022/07/25 09:59:23;;;;;;;3.90;1.20;;;27.70;58.40;;;;;;5066050;28;20025;-71
2022/07/25 10:02:06;;;;;;;5.93;0.88;;;27.70;58.20;;;;;;5065986;28;20032;-71
2022/07/25 10:05:08;;;;;;;4.63;1.08;;;27.70;58.40;;;;;;5065014;28;20119;-73
2022/07/25 10:07:37;;;;;;;3.60;1.20;;;27.70;57.80;;;;;;5049962;28;20025;-76
2022/07/25 10:10:04;;;;;;;3.88;1.00;;;27.40;58.20;;;;;;5066593;28;20032;-75
2022/07/25 10:12:30;;;;;;;3.63;0.98;;;27.30;58.70;;;;;;5064970;28;20021;-73
2022/07/25 10:15:12;;;;;;;3.60;1.23;;;27.40;58.50;;;;;;5061791;28;20116;-73
2022/07/25 10:17:40;;;;;;;5.53;1.80;;;27.40;57.60;;;;;;5062206;28;20032;-73
2022/07/25 10:20:09;;;;;;;3.72;1.05;;;27.40;58.00;;;;;;5064329;28;20024;-76
2022/07/25 10:22:43;;;;;;;8.05;1.60;;;27.30;57.90;;;;;;5065763;28;20021;-74
2022/07/25 10:25:16;;;;;;;2.90;1.30;;;27.40;58.70;;;;;;5076475;28;20017;-76
2022/07/25 10:27:47;;;;;;;6.82;1.77;;;27.60;58.40;;;;;;5074101;28;20033;-76
2022/07/25 10:30:25;;;;;;;6.50;1.70;;;27.70;58.50;;;;;;5073996;28;20029;-72
2022/07/25 10:33:20;;;;;;;6.35;1.88;;;27.70;58.40;;;;;;5066974;28;20361;-74
2022/07/25 10:35:46;;;;;;;4.53;1.30;;;27.70;59.20;;;;;;5056396;28;20055;-75
2022/07/25 10:38:12;;;;;;;4.07;1.45;;;27.80;59.10;;;;;;5058129;28;20032;-75
2022/07/25 10:40:46;;;;;;;6.07;1.83;;;27.70;58.80;;;;;;5059126;28;20092;-75
2022/07/25 10:43:17;;;;;;;3.95;1.48;;;27.80;59.00;;;;;;5063010;28;20040;-75
2022/07/25 10:45:50;;;;;;;6.65;1.90;;;27.80;58.40;;;;;;5065748;28;20025;-74
2022/07/25 10:48:25;;;;;;;6.47;1.63;;;28.00;57.40;;;;;;5057936;28;20025;-76
2022/07/25 10:51:04;;;;;;;4.88;1.40;;;28.00;57.20;;;;;;5053094;28;20021;-75
2022/07/25 10:53:43;;;;;;;3.70;1.27;;;28.00;54.20;;;;;;5057588;28;20036;-75
2022/07/25 10:56:16;;;;;;;5.88;1.42;;;27.80;54.20;;;;;;5052537;28;20040;-75
2022/07/25 10:58:54;;;;;;;4.28;1.55;;;27.80;53.40;;;;;;5059719;28;20029;-75
2022/07/25 11:01:21;;;;;;;6.65;1.63;;;27.80;55.00;;;;;;5063114;28;20083;-75
2022/07/25 11:03:50;;;;;;;5.07;1.73;;;27.80;55.50;;;;;;5073205;28;20032;-75
2022/07/25 11:06:27;;;;;;;6.67;1.43;;;27.80;55.90;;;;;;5073494;28;20074;-74
2022/07/25 11:08:56;;;;;;;8.15;1.92;;;27.90;56.70;;;;;;5073342;28;20291;-75
2022/07/25 11:11:39;;;;;;;5.85;1.98;;;28.00;55.20;;;;;;5072617;28;20020;-74
2022/07/25 11:14:24;;;;;;;6.35;1.45;;;28.00;54.70;;;;;;5061940;28;20383;-74
2022/07/25 11:16:52;;;;;;;6.25;1.80;;;27.90;55.30;;;;;;5060873;28;20037;-74
2022/07/25 11:19:22;;;;;;;4.43;1.30;;;27.80;55.80;;;;;;5059074;28;20777;-75
2022/07/25 11:21:53;;;;;;;6.45;2.22;;;27.80;56.10;;;;;;5060384;28;20033;-74
2022/07/25 11:24:36;;;;;;;6.53;2.10;;;27.80;56.50;;;;;;5059619;28;20126;-74
2022/07/25 11:27:02;;;;;;;3.85;1.40;;;27.80;56.60;;;;;;5059561;28;20483;-75
2022/07/25 11:29:30;;;;;;;6.75;1.90;;;27.70;56.90;;;;;;5068768;28;20036;-75
2022/07/25 11:32:01;;;;;;;7.97;1.70;;;27.80;56.60;;;;;;5063742;28;20039;-76
2022/07/25 11:34:30;;;;;;;7.18;1.75;;;27.80;57.20;;;;;;5061243;28;20065;-75
2022/07/25 11:36:57;;;;;;;5.43;1.75;;;27.70;57.20;;;;;;5058866;28;20093;-75
2022/07/25 11:39:29;;;;;;;5.35;1.60;;;27.60;56.80;;;;;;5061330;28;20025;-71
2022/07/25 11:42:07;;;;;;;7.15;1.98;;;27.50;57.50;;;;;;5063177;28;20052;-73
2022/07/25 11:44:35;;;;;;;9.57;2.33;;;27.60;57.50;;;;;;5065122;28;20031;-76
2022/07/25 11:47:03;;;;;;;6.10;1.85;;;27.50;56.10;;;;;;5061019;28;20021;-75
2022/07/25 11:49:29;;;;;;;5.90;1.88;;;27.30;56.90;;;;;;5061123;28;20099;-75
2022/07/25 11:51:55;;;;;;;6.53;1.95;;;27.20;57.00;;;;;;5061513;28;20031;-73
2022/07/25 11:54:21;;;;;;;8.52;2.25;;;27.10;56.70;;;;;;5058798;28;20016;-75
2022/07/25 11:56:46;;;;;;;7.60;2.40;;;27.00;57.00;;;;;;5057750;28;20486;-74
2022/07/25 11:59:13;;;;;;;8.68;1.88;;;26.80;57.30;;;;;;5061206;28;20033;-70
2022/07/25 12:01:40;;;;;;;6.68;2.30;;;26.70;57.90;;;;;;5059609;28;20039;-76
2022/07/25 12:04:14;;;;;;;5.30;1.60;;;26.50;57.80;;;;;;5059949;28;20032;-75
2022/07/25 12:06:44;;;;;;;6.38;1.88;;;26.50;57.70;;;;;;5057869;28;20033;-74
2022/07/25 12:09:15;;;;;;;7.68;2.30;;;26.40;57.70;;;;;;5060605;28;20425;-76
2022/07/25 12:11:41;;;;;;;6.85;2.35;;;26.20;57.70;;;;;;5064831;28;20013;-77
2022/07/25 12:14:07;;;;;;;8.98;1.90;;;26.30;57.10;;;;;;5061194;28;20489;-75
2022/07/25 12:16:34;;;;;;;8.18;1.90;;;26.30;57.40;;;;;;5060659;28;20036;-75
2022/07/25 12:19:01;;;;;;;9.63;1.95;;;26.40;57.60;;;;;;5059621;28;20031;-76
2022/07/25 12:21:27;;;;;;;5.50;1.77;;;26.70;56.90;;;;;;5058007;28;20029;-75
2022/07/25 12:23:53;;;;;;;5.78;1.73;;;26.90;54.80;;;;;;5056460;28;20044;-77
2022/07/25 12:26:19;;;;;;;4.60;1.55;;;27.10;53.30;;;;;;5055320;28;20067;-72
2022/07/25 12:28:44;;;;;;;8.02;2.13;;;27.00;53.50;;;;;;5056791;28;20033;-74
2022/07/25 12:31:10;;;;;;;6.15;1.38;;;26.90;54.20;;;;;;5059614;28;20024;-72
2022/07/25 12:33:36;;;;;;;8.00;1.75;;;26.80;55.60;;;;;;5057162;28;20025;-72
2022/07/25 12:36:02;;;;;;;7.90;2.25;;;26.70;56.10;;;;;;5057851;28;20399;-74
2022/07/25 12:38:28;;;;;;;7.55;2.67;;;26.70;56.40;;;;;;5057454;28;20037;-75
2022/07/25 12:40:54;;;;;;;8.70;2.40;;;26.60;56.10;;;;;;5057001;28;20120;-76
2022/07/25 12:43:20;;;;;;;8.55;2.63;;;26.50;56.70;;;;;;5061062;28;20049;-75